Time;durP1;ratioP1;P1;durP2;ratioP2;P2;SDS_P1;SDS_P2;PMS_P1;PMS_P2;Temp;Humidity;BMP_temperature;BMP_pressure;BME280_temperature;BME280_humidity;BME280_pressure;Samples;Min_cycle;Max_cycle;Signal;HPM_P1;HPM_P2
2023/05/12 00:01:02;;;;;;;11.40;7.15;;;;;;;25.17;54.20;95961.25;5110967;27;20083;-52
2023/05/12 00:03:30;;;;;;;11.57;7.25;;;;;;;24.26;59.06;95956.84;5109766;28;20075;-58
2023/05/12 00:06:02;;;;;;;11.40;7.13;;;;;;;25.05;57.83;95951.38;5117384;27;20090;-58
2023/05/12 00:08:30;;;;;;;12.43;7.22;;;;;;;25.34;54.44;95954.75;5105232;28;20523;-56
2023/05/12 00:11:01;;;;;;;12.75;7.57;;;;;;;25.55;54.78;95950.41;5112400;28;20075;-53
2023/05/12 00:13:29;;;;;;;12.75;7.97;;;;;;;25.43;52.97;95957.00;5109496;28;20079;-57
2023/05/12 00:15:58;;;;;;;12.77;8.10;;;;;;;23.84;61.07;95961.72;5112502;28;20734;-56
2023/05/12 00:18:27;;;;;;;12.20;7.22;;;;;;;24.09;60.78;95953.31;5112296;28;20091;-56
2023/05/12 00:20:55;;;;;;;13.68;8.05;;;;;;;24.94;55.68;95948.75;5109445;27;20208;-52
2023/05/12 00:23:24;;;;;;;13.20;8.20;;;;;;;24.96;54.76;95954.75;5118697;28;20523;-58
2023/05/12 00:25:52;;;;;;;12.82;7.82;;;;;;;24.61;56.96;95951.25;5116878;28;20087;-53
2023/05/12 00:28:22;;;;;;;12.38;7.03;;;;;;;25.35;55.49;95955.56;5115179;28;20075;-58
2023/05/12 00:30:50;;;;;;;12.40;7.32;;;;;;;25.32;53.54;95950.66;5104176;28;20079;-57
2023/05/12 00:33:18;;;;;;;13.80;7.43;;;;;;;25.18;53.73;95957.50;5120414;27;20090;-58
2023/05/12 00:35:46;;;;;;;12.18;6.82;;;;;;;24.73;57.18;95956.56;5113879;28;20083;-54
2023/05/12 00:38:15;;;;;;;13.45;7.60;;;;;;;25.15;54.93;95950.72;5115926;27;20075;-54
2023/05/12 00:40:43;;;;;;;13.68;7.05;;;;;;;25.55;52.81;95947.72;5112413;28;20474;-56
2023/05/12 00:43:11;;;;;;;12.55;7.43;;;;;;;25.58;52.61;95949.91;5122081;28;20074;-54
2023/05/12 00:45:41;;;;;;;10.82;7.50;;;;;;;25.97;52.06;95949.81;5112691;28;20476;-59
2023/05/12 00:48:09;;;;;;;13.30;8.10;;;;;;;25.49;51.62;95947.91;5117373;28;20141;-55
2023/05/12 00:50:38;;;;;;;12.68;8.35;;;;;;;25.30;52.46;95945.53;5108549;28;20960;-51
2023/05/12 00:53:06;;;;;;;16.13;9.57;;;;;;;25.41;51.84;95948.34;5114602;27;20083;-57
2023/05/12 00:55:35;;;;;;;13.05;8.23;;;;;;;25.28;51.88;95936.84;5113605;27;20083;-55
2023/05/12 00:58:03;;;;;;;14.10;8.30;;;;;;;25.16;52.85;95935.34;5119627;27;20097;-55
2023/05/12 01:00:31;;;;;;;13.63;8.07;;;;;;;25.23;52.46;95944.09;5105045;27;20095;-57
2023/05/12 01:03:01;;;;;;;13.50;8.23;;;;;;;25.65;52.14;95930.81;5106099;27;20079;-57
2023/05/12 01:05:32;;;;;;;14.18;8.35;;;;;;;25.57;51.69;95933.97;5114335;27;20459;-53
2023/05/12 01:08:00;;;;;;;14.63;9.10;;;;;;;25.23;52.44;95934.09;5118410;27;20086;-57
2023/05/12 01:10:28;;;;;;;15.70;8.65;;;;;;;25.10;53.30;95937.94;5120156;27;20098;-52
2023/05/12 01:12:57;;;;;;;15.85;8.63;;;;;;;24.55;56.29;95949.53;5117582;27;20082;-57
2023/05/12 01:15:25;;;;;;;20.10;10.55;;;;;;;24.85;55.32;95943.00;5113817;27;20538;-57
2023/05/12 01:17:57;;;;;;;18.30;10.43;;;;;;;24.91;56.44;95933.88;5123121;27;20101;-53
2023/05/12 01:20:28;;;;;;;20.55;11.15;;;;;;;25.15;56.04;95942.63;5114480;27;20071;-52
2023/05/12 01:22:57;;;;;;;16.55;9.13;;;;;;;24.48;57.98;95943.50;5121731;27;20115;-53
2023/05/12 01:25:27;;;;;;;26.15;11.93;;;;;;;23.88;64.74;95944.03;5118340;27;20079;-52
2023/05/12 01:27:57;;;;;;;14.50;8.32;;;;;;;24.04;64.69;95945.13;5118244;27;20075;-54
2023/05/12 01:30:26;;;;;;;21.35;10.88;;;;;;;23.69;66.34;95943.41;5114458;27;20455;-54
2023/05/12 01:33:11;;;;;;;16.42;9.20;;;;;;;23.88;65.49;95939.47;5124967;27;20085;-56
2023/05/12 01:36:04;;;;;;;14.45;8.45;;;;;;;23.44;66.13;95951.78;5104160;27;20073;-52
2023/05/12 01:38:54;;;;;;;13.82;7.72;;;;;;;22.85;71.20;95940.25;5119085;27;20106;-58
2023/05/12 01:41:47;;;;;;;15.35;8.10;;;;;;;23.88;62.54;95931.41;5118481;27;20051;-55
2023/05/12 01:44:21;;;;;;;13.57;7.65;;;;;;;24.60;60.11;95938.00;5118407;27;20074;-57
2023/05/12 01:46:55;;;;;;;13.73;8.20;;;;;;;24.17;60.91;95934.06;5100887;28;20075;-55
2023/05/12 01:49:38;;;;;;;18.38;9.90;;;;;;;24.30;62.83;95935.63;5091265;28;20070;-56
2023/05/12 01:52:09;;;;;;;17.63;8.68;;;;;;;23.16;67.42;95941.78;5109339;27;20071;-55
2023/05/12 01:54:37;;;;;;;14.25;8.45;;;;;;;23.45;65.88;95940.75;5117480;27;20098;-58
2023/05/12 01:57:06;;;;;;;15.52;8.73;;;;;;;24.27;59.88;95933.41;5106261;27;20080;-56
2023/05/12 01:59:36;;;;;;;16.50;8.65;;;;;;;24.76;59.59;95934.50;5110557;27;20075;-55
2023/05/12 02:02:04;;;;;;;15.20;8.40;;;;;;;24.56;58.50;95937.69;5113606;27;20953;-57
2023/05/12 02:04:33;;;;;;;14.10;8.05;;;;;;;24.25;58.04;95935.53;5103464;27;20102;-52
2023/05/12 02:07:01;;;;;;;16.70;9.23;;;;;;;24.41;57.20;95934.75;5105867;27;20082;-54
2023/05/12 02:09:30;;;;;;;19.85;9.63;;;;;;;23.73;63.70;95932.97;5104516;27;20083;-58
2023/05/12 02:11:58;;;;;;;18.45;10.10;;;;;;;24.51;57.79;95936.81;5101389;27;20545;-56
2023/05/12 02:14:26;;;;;;;18.60;10.48;;;;;;;24.25;58.88;95930.94;5104206;27;20075;-57
2023/05/12 02:16:56;;;;;;;15.98;8.90;;;;;;;23.76;67.02;95936.00;5111163;27;20086;-55
2023/05/12 02:19:26;;;;;;;15.73;8.93;;;;;;;23.55;67.85;95934.78;5103176;27;20082;-56
2023/05/12 02:21:58;;;;;;;15.40;8.75;;;;;;;23.50;67.21;95936.53;5102183;27;20472;-56
2023/05/12 02:24:28;;;;;;;19.65;10.23;;;;;;;24.11;63.52;95932.31;5117304;27;20079;-57
2023/05/12 02:26:57;;;;;;;17.53;9.60;;;;;;;24.00;62.89;95927.81;5090869;28;20079;-54
2023/05/12 02:29:25;;;;;;;19.77;10.65;;;;;;;24.42;60.76;95933.69;5103657;27;20079;-49
2023/05/12 02:31:53;;;;;;;13.98;8.65;;;;;;;24.62;58.66;95930.50;5113634;27;20070;-56
2023/05/12 02:34:23;;;;;;;18.58;10.00;;;;;;;25.27;56.88;95926.31;5113136;27;20083;-55
2023/05/12 02:36:51;;;;;;;19.37;9.23;;;;;;;24.93;55.76;95920.97;5107390;27;20460;-57
2023/05/12 02:39:19;;;;;;;15.52;9.30;;;;;;;24.95;54.96;95926.09;5108247;27;20090;-53
2023/05/12 02:41:48;;;;;;;17.98;10.63;;;;;;;24.81;55.59;95918.41;5110430;27;20072;-51
2023/05/12 02:44:16;;;;;;;18.50;10.48;;;;;;;24.90;55.57;95918.78;5110941;27;20087;-56
2023/05/12 02:46:45;;;;;;;17.58;10.10;;;;;;;24.76;55.92;95921.00;5107963;28;20478;-57
2023/05/12 02:49:13;;;;;;;18.17;10.82;;;;;;;24.41;59.75;95923.97;5113954;27;20085;-57
2023/05/12 02:51:42;;;;;;;19.23;10.98;;;;;;;24.19;62.51;95920.31;5112780;27;20075;-58
2023/05/12 02:54:11;;;;;;;18.70;11.07;;;;;;;24.60;57.54;95921.81;5107349;27;20086;-53
2023/05/12 02:56:39;;;;;;;17.05;10.43;;;;;;;24.69;57.06;95920.34;5101702;27;20075;-56
2023/05/12 02:59:07;;;;;;;19.55;10.70;;;;;;;24.83;55.70;95915.44;5100239;27;20091;-54
2023/05/12 03:01:36;;;;;;;22.10;11.52;;;;;;;24.14;59.82;95924.56;5102213;28;20067;-54
2023/05/12 03:04:05;;;;;;;20.88;11.55;;;;;;;23.98;61.24;95928.06;5103761;27;20083;-54
2023/05/12 03:06:33;;;;;;;25.38;12.65;;;;;;;24.55;57.61;95919.88;5104085;27;20087;-57
2023/05/12 03:09:03;;;;;;;20.80;11.80;;;;;;;24.71;58.12;95917.41;5099405;27;20086;-52
2023/05/12 03:11:31;;;;;;;24.07;11.27;;;;;;;24.36;58.36;95919.28;5104699;27;20103;-55
2023/05/12 03:13:59;;;;;;;19.95;11.50;;;;;;;23.89;61.62;95926.81;5103732;28;20496;-53
2023/05/12 03:16:27;;;;;;;22.15;12.60;;;;;;;24.43;58.46;95921.03;5106874;27;20075;-54
2023/05/12 03:18:56;;;;;;;18.60;10.50;;;;;;;24.58;58.62;95923.97;5106790;27;20871;-55
2023/05/12 03:21:24;;;;;;;20.73;12.18;;;;;;;24.33;58.73;95927.06;5101040;27;20086;-57
2023/05/12 03:23:52;;;;;;;21.73;11.10;;;;;;;23.95;60.48;95930.41;5101601;27;20117;-57
2023/05/12 03:26:22;;;;;;;19.40;11.68;;;;;;;23.62;65.52;95929.25;5102484;27;20093;-58
2023/05/12 03:28:51;;;;;;;19.48;11.07;;;;;;;22.55;72.02;95940.38;5104263;27;20480;-58
2023/05/12 03:31:19;;;;;;;21.35;12.25;;;;;;;23.60;66.02;95928.66;5112539;27;20082;-58
2023/05/12 03:33:47;;;;;;;20.55;11.13;;;;;;;23.76;63.79;95933.31;5110732;27;20086;-56
2023/05/12 03:36:16;;;;;;;17.25;10.40;;;;;;;24.37;60.76;95933.59;5110738;27;20079;-55
2023/05/12 03:38:44;;;;;;;17.10;10.07;;;;;;;24.38;59.08;95937.91;5104995;27;20090;-54
2023/05/12 03:41:12;;;;;;;18.40;10.30;;;;;;;24.62;57.91;95934.00;5113213;27;20482;-54
2023/05/12 03:43:42;;;;;;;19.52;10.27;;;;;;;25.08;57.46;95939.25;5114074;27;20082;-52
2023/05/12 03:46:10;;;;;;;14.80;8.93;;;;;;;24.82;57.98;95936.19;5120686;27;20518;-55
2023/05/12 03:48:39;;;;;;;19.15;10.35;;;;;;;24.25;59.75;95930.94;5100146;28;20085;-53
2023/05/12 03:51:07;;;;;;;17.77;9.77;;;;;;;24.07;62.34;95939.25;5104345;27;20083;-56
2023/05/12 03:53:35;;;;;;;18.27;10.75;;;;;;;24.80;57.80;95938.31;5099775;27;20106;-56
2023/05/12 03:56:04;;;;;;;20.27;11.18;;;;;;;24.83;59.48;95931.63;5108151;28;20091;-56
2023/05/12 03:58:33;;;;;;;18.20;11.00;;;;;;;24.59;57.31;95934.50;5114801;27;20079;-56
2023/05/12 04:01:02;;;;;;;19.00;10.77;;;;;;;24.52;60.61;95933.84;5103864;27;20087;-58
2023/05/12 04:03:31;;;;;;;18.30;10.15;;;;;;;24.59;58.34;95936.38;5114394;27;20089;-57
2023/05/12 04:05:59;;;;;;;17.35;10.50;;;;;;;24.30;60.11;95931.06;5109805;28;20071;-52
2023/05/12 04:08:28;;;;;;;21.95;11.63;;;;;;;23.61;63.28;95935.69;5103701;28;20079;-58
2023/05/12 04:10:57;;;;;;;19.27;11.25;;;;;;;24.05;62.25;95931.41;5112469;28;20091;-55
2023/05/12 04:13:26;;;;;;;21.08;12.50;;;;;;;23.59;64.79;95940.50;5116825;28;20086;-56
2023/05/12 04:15:59;;;;;;;18.23;11.25;;;;;;;24.26;62.31;95926.38;5115670;28;20083;-53
2023/05/12 04:18:36;;;;;;;19.33;11.27;;;;;;;24.61;60.15;95940.47;5108741;28;20104;-56
2023/05/12 04:21:32;;;;;;;16.45;9.52;;;;;;;24.19;64.35;95936.50;5121727;28;20621;-55
2023/05/12 04:24:11;;;;;;;21.35;11.15;;;;;;;24.44;59.79;95936.16;5121380;27;20043;-54
2023/05/12 04:26:39;;;;;;;19.45;10.95;;;;;;;24.33;60.04;95940.53;5121412;27;20087;-57
2023/05/12 04:29:07;;;;;;;18.35;10.88;;;;;;;24.53;58.87;95940.88;5118837;27;20733;-51
2023/05/12 04:31:36;;;;;;;17.90;10.63;;;;;;;24.13;60.49;95949.88;5118358;27;20625;-55
2023/05/12 04:34:05;;;;;;;15.75;9.57;;;;;;;24.59;60.48;95949.84;5117819;27;20075;-52
2023/05/12 04:36:34;;;;;;;17.60;9.73;;;;;;;24.22;61.42;95944.91;5120247;27;20087;-54
2023/05/12 04:39:02;;;;;;;17.33;9.77;;;;;;;24.70;58.02;95943.56;5119594;27;20083;-52
2023/05/12 04:41:30;;;;;;;16.08;9.57;;;;;;;24.46;58.64;95955.56;5114503;27;20083;-56
2023/05/12 04:43:59;;;;;;;15.05;9.23;;;;;;;24.73;57.10;95953.03;5119942;27;20082;-51
2023/05/12 04:46:27;;;;;;;17.52;9.60;;;;;;;24.40;60.32;95957.38;5107681;27;20087;-55
2023/05/12 04:48:56;;;;;;;16.30;9.00;;;;;;;24.78;57.26;95959.34;5124796;27;20597;-55
2023/05/12 04:51:26;;;;;;;16.38;10.23;;;;;;;24.85;57.85;95959.97;5114955;27;20079;-52
2023/05/12 04:53:54;;;;;;;18.50;10.90;;;;;;;24.22;57.73;95960.25;5116335;27;20537;-56
2023/05/12 04:56:22;;;;;;;16.70;10.00;;;;;;;23.38;62.30;95967.00;5117457;27;20079;-56
2023/05/12 04:58:58;;;;;;;15.32;9.60;;;;;;;23.83;62.38;95960.09;5123607;27;20083;-57
2023/05/12 05:01:28;;;;;;;17.60;9.52;;;;;;;24.58;57.00;95956.31;5118464;27;20043;-55
2023/05/12 05:03:57;;;;;;;15.50;9.38;;;;;;;24.39;57.24;95959.22;5117290;27;20050;-52
2023/05/12 05:06:27;;;;;;;15.32;9.75;;;;;;;24.41;58.04;95964.41;5121170;27;20090;-56
2023/05/12 05:08:56;;;;;;;18.80;10.50;;;;;;;24.06;61.36;95961.88;5126098;27;20066;-57
2023/05/12 05:11:24;;;;;;;16.83;10.05;;;;;;;23.75;61.77;95968.56;5119664;27;20079;-55
2023/05/12 05:13:52;;;;;;;14.50;9.27;;;;;;;23.63;62.57;95966.69;5119372;27;20542;-53
2023/05/12 05:16:21;;;;;;;17.05;9.18;;;;;;;24.32;58.24;95963.94;5126171;27;20083;-54
2023/05/12 05:18:50;;;;;;;14.23;8.95;;;;;;;25.23;53.40;95963.78;5119068;27;20075;-55
2023/05/12 05:21:19;;;;;;;11.98;7.60;;;;;;;24.11;57.28;95975.44;5115754;27;20094;-53
2023/05/12 05:23:50;;;;;;;15.07;9.30;;;;;;;25.16;56.26;95963.16;5108599;27;20062;-59
2023/05/12 05:26:18;;;;;;;14.80;9.23;;;;;;;25.27;54.66;95967.63;5108175;27;20090;-53
2023/05/12 05:28:46;;;;;;;16.50;10.18;;;;;;;25.20;54.55;95968.88;5114860;27;20526;-56
2023/05/12 05:31:15;;;;;;;15.70;10.10;;;;;;;25.72;53.46;95966.56;5122859;27;20082;-55
2023/05/12 05:33:44;;;;;;;14.35;9.55;;;;;;;25.83;51.85;95966.69;5116443;27;20082;-54
2023/05/12 05:36:12;;;;;;;17.95;9.82;;;;;;;26.03;51.45;95970.44;5116314;27;20090;-53
2023/05/12 05:38:40;;;;;;;15.43;9.52;;;;;;;25.16;52.85;95973.13;5117375;27;20089;-52
2023/05/12 05:41:10;;;;;;;13.73;9.90;;;;;;;25.61;52.35;95975.59;5118543;27;20087;-57
2023/05/12 05:43:38;;;;;;;14.10;8.97;;;;;;;24.68;53.76;95980.75;5121929;27;20526;-52
2023/05/12 05:46:07;;;;;;;13.02;8.30;;;;;;;25.50;52.17;95974.66;5112822;27;20090;-53
2023/05/12 05:48:36;;;;;;;14.02;9.45;;;;;;;25.01;55.48;95976.38;5122958;27;20440;-54
2023/05/12 05:51:05;;;;;;;12.88;8.35;;;;;;;24.94;55.02;95973.84;5117622;27;20082;-52
2023/05/12 05:53:33;;;;;;;11.40;7.13;;;;;;;25.36;52.66;95976.09;5111940;27;20082;-51
2023/05/12 05:56:01;;;;;;;11.10;7.07;;;;;;;24.83;54.15;95980.97;5115129;27;20522;-53
2023/05/12 05:58:31;;;;;;;10.05;6.55;;;;;;;24.86;55.99;95977.78;5118368;27;20131;-56
2023/05/12 06:01:01;;;;;;;9.57;6.40;;;;;;;25.49;51.83;95977.59;5117388;27;20049;-58
2023/05/12 06:03:29;;;;;;;10.07;6.65;;;;;;;26.14;50.42;95978.66;5108950;27;20074;-52
2023/05/12 06:05:58;;;;;;;11.30;6.63;;;;;;;26.36;48.98;95983.97;5114959;27;20129;-52
2023/05/12 06:08:26;;;;;;;12.05;6.90;;;;;;;25.78;51.40;95991.75;5106796;27;20082;-55
2023/05/12 06:10:55;;;;;;;12.02;7.43;;;;;;;26.24;49.80;95987.66;5102790;27;20050;-56
2023/05/12 06:13:23;;;;;;;8.38;5.70;;;;;;;26.92;47.54;95984.50;5113021;27;20086;-51
2023/05/12 06:15:53;;;;;;;9.15;6.20;;;;;;;26.67;48.38;95994.06;5123595;27;20094;-56
2023/05/12 06:18:22;;;;;;;8.33;5.73;;;;;;;26.11;48.63;95990.78;5112365;27;20086;-56
2023/05/12 06:20:50;;;;;;;8.88;5.97;;;;;;;26.08;49.73;95987.75;5116320;27;20121;-51
2023/05/12 06:23:19;;;;;;;8.90;5.50;;;;;;;25.94;50.15;95990.06;5115913;27;20074;-56
2023/05/12 06:25:48;;;;;;;8.10;5.30;;;;;;;26.33;47.27;96000.75;5122815;27;20075;-54
2023/05/12 06:28:17;;;;;;;8.10;5.35;;;;;;;25.69;50.21;95991.38;5120225;27;20071;-57
2023/05/12 06:30:46;;;;;;;8.25;5.45;;;;;;;26.00;50.06;95989.84;5120223;27;20040;-58
2023/05/12 06:33:17;;;;;;;9.07;5.88;;;;;;;27.34;46.90;95986.41;5106435;27;20043;-57
2023/05/12 06:35:45;;;;;;;8.10;5.43;;;;;;;26.34;47.85;95997.78;5100741;28;20040;-59
2023/05/12 06:38:14;;;;;;;8.07;5.47;;;;;;;26.10;48.55;95997.25;5123292;27;20082;-59
2023/05/12 06:40:42;;;;;;;9.25;5.63;;;;;;;26.55;47.04;96004.22;5127328;27;20039;-58
2023/05/12 06:43:11;;;;;;;8.52;5.57;;;;;;;26.15;47.53;96005.44;5124076;27;20063;-56
2023/05/12 06:45:40;;;;;;;7.80;5.32;;;;;;;26.79;46.74;96006.59;5128139;27;20067;-55
2023/05/12 06:48:08;;;;;;;6.88;4.80;;;;;;;26.70;47.20;96004.38;5127427;27;20059;-58
2023/05/12 06:50:38;;;;;;;6.40;4.22;;;;;;;26.55;46.35;96009.63;5116694;27;20075;-54
2023/05/12 06:53:06;;;;;;;7.97;5.40;;;;;;;25.62;47.59;96008.81;5124585;27;20439;-55
2023/05/12 06:55:35;;;;;;;10.73;6.10;;;;;;;24.44;50.21;96023.22;5115101;27;20552;-56
2023/05/12 06:58:03;;;;;;;12.38;7.13;;;;;;;24.66;51.61;96019.81;5125022;27;20086;-56
2023/05/12 07:00:31;;;;;;;8.90;5.43;;;;;;;25.49;52.32;96004.59;5112654;27;20121;-57
2023/05/12 07:03:00;;;;;;;11.35;6.78;;;;;;;25.69;49.40;96010.25;5121958;27;20075;-55
2023/05/12 07:05:28;;;;;;;11.52;7.00;;;;;;;26.44;47.40;96010.59;5111640;27;20082;-58
2023/05/12 07:07:58;;;;;;;8.88;5.97;;;;;;;26.46;47.87;96006.56;5123817;27;20086;-54
2023/05/12 07:10:26;;;;;;;10.63;6.30;;;;;;;24.74;53.71;96009.44;5116592;27;20454;-56
2023/05/12 07:12:54;;;;;;;10.68;6.38;;;;;;;24.81;51.21;96014.66;5117933;27;20519;-55
2023/05/12 07:15:23;;;;;;;9.75;6.07;;;;;;;24.38;53.92;96016.06;5124920;27;20537;-54
2023/05/12 07:17:51;;;;;;;7.97;5.47;;;;;;;24.64;53.69;96017.38;5118875;27;20083;-59
2023/05/12 07:20:20;;;;;;;10.45;5.90;;;;;;;24.99;50.07;96016.28;5121927;27;20082;-54
2023/05/12 07:22:48;;;;;;;9.20;5.78;;;;;;;26.83;46.83;96013.09;5111572;27;20086;-58
2023/05/12 07:25:18;;;;;;;8.25;5.55;;;;;;;26.78;47.19;96003.06;5118979;27;20558;-56
2023/05/12 07:27:47;;;;;;;7.47;5.18;;;;;;;28.39;43.03;96002.56;5111136;27;20083;-52
2023/05/12 07:30:15;;;;;;;9.32;6.22;;;;;;;27.49;43.28;96010.84;5128276;27;20086;-55
2023/05/12 07:32:45;;;;;;;8.23;5.43;;;;;;;27.20;43.48;96005.00;5109567;27;20078;-56
2023/05/12 07:35:14;;;;;;;7.18;5.50;;;;;;;28.24;43.98;96007.91;5104832;27;20039;-52
2023/05/12 07:37:42;;;;;;;7.82;5.22;;;;;;;28.58;40.82;96002.84;5118967;27;20078;-50
2023/05/12 07:40:11;;;;;;;7.90;5.28;;;;;;;28.61;41.83;96003.13;5121104;27;20083;-53
2023/05/12 07:42:41;;;;;;;8.40;6.00;;;;;;;25.81;46.84;96015.59;5113323;27;20083;-59
2023/05/12 07:45:09;;;;;;;8.75;6.28;;;;;;;28.00;44.53;95997.56;5112877;27;20083;-50
2023/05/12 07:47:38;;;;;;;9.15;5.85;;;;;;;26.62;45.65;96007.53;5114260;27;20079;-57
2023/05/12 07:50:07;;;;;;;8.38;5.60;;;;;;;27.18;44.91;96010.66;5116546;27;20086;-59
2023/05/12 07:52:35;;;;;;;7.53;5.20;;;;;;;25.32;49.76;96020.84;5117245;27;20083;-52
2023/05/12 07:55:04;;;;;;;9.35;5.38;;;;;;;25.98;48.28;96013.63;5108738;27;20079;-55
2023/05/12 07:57:32;;;;;;;7.90;5.82;;;;;;;27.93;44.09;96003.22;5118493;27;20082;-53
2023/05/12 08:00:03;;;;;;;8.90;6.00;;;;;;;26.18;46.99;96017.59;5116862;27;20075;-54
2023/05/12 08:02:31;;;;;;;9.95;5.78;;;;;;;26.42;47.71;96016.22;5117933;27;20094;-58
2023/05/12 08:05:00;;;;;;;7.90;5.32;;;;;;;24.63;50.82;96016.53;5116571;27;20078;-57
2023/05/12 08:07:28;;;;;;;8.52;5.55;;;;;;;25.94;46.42;96014.38;5114691;27;20079;-57
2023/05/12 08:09:58;;;;;;;8.82;5.32;;;;;;;25.94;48.11;96017.06;5114565;27;20778;-57
2023/05/12 08:12:26;;;;;;;9.05;5.50;;;;;;;26.93;46.06;96007.78;5118175;27;20093;-58
2023/05/12 08:14:54;;;;;;;10.23;6.13;;;;;;;25.41;50.02;96015.84;5117458;28;20078;-58
2023/05/12 08:17:24;;;;;;;9.98;5.57;;;;;;;25.01;50.53;96008.75;5114355;28;20083;-57
2023/05/12 08:19:56;;;;;;;9.85;5.28;;;;;;;25.90;47.48;96013.25;5116406;28;20083;-55
2023/05/12 08:22:24;;;;;;;6.75;4.78;;;;;;;25.88;47.05;96015.38;5113595;27;20097;-55
2023/05/12 08:24:52;;;;;;;10.15;5.07;;;;;;;26.41;48.91;96008.38;5119373;28;20087;-57
2023/05/12 08:27:21;;;;;;;7.93;5.32;;;;;;;26.33;49.55;96006.16;5117191;28;20086;-58
2023/05/12 08:29:49;;;;;;;9.25;4.90;;;;;;;26.72;48.14;96006.78;5121577;28;20075;-56
2023/05/12 08:32:18;;;;;;;7.13;4.55;;;;;;;25.44;49.56;96009.94;5114539;28;20071;-59
2023/05/12 08:34:47;;;;;;;7.28;4.97;;;;;;;25.88;48.75;96018.91;5104045;28;20742;-57
2023/05/12 08:37:16;;;;;;;8.85;5.03;;;;;;;26.46;46.23;96019.22;5115705;28;20071;-57
2023/05/12 08:39:44;;;;;;;6.63;4.57;;;;;;;26.62;45.98;96017.53;5106786;28;20535;-56
2023/05/12 08:42:20;;;;;;;6.57;4.28;;;;;;;26.18;49.30;96020.31;5117119;28;20079;-54
2023/05/12 08:44:48;;;;;;;7.55;4.90;;;;;;;27.19;47.02;96016.94;5111242;28;20055;-59
2023/05/12 08:47:18;;;;;;;7.35;4.82;;;;;;;26.41;48.20;96017.31;5115371;28;20050;-53
2023/05/12 08:49:49;;;;;;;8.65;4.95;;;;;;;26.52;49.29;96020.94;5115610;28;20568;-55
2023/05/12 08:52:21;;;;;;;8.70;5.05;;;;;;;26.55;47.01;96020.44;5109914;28;20080;-56
2023/05/12 08:54:50;;;;;;;7.60;4.33;;;;;;;25.86;48.35;96021.03;5110756;28;20090;-54
2023/05/12 08:57:24;;;;;;;6.45;4.55;;;;;;;26.04;46.63;96020.69;5116462;28;20512;-50
2023/05/12 08:59:58;;;;;;;7.45;4.63;;;;;;;27.32;43.98;96018.34;5105942;28;20083;-59
2023/05/12 09:02:27;;;;;;;6.97;4.45;;;;;;;26.23;47.64;96018.50;5122062;28;20503;-57
2023/05/12 09:05:13;;;;;;;6.15;4.05;;;;;;;25.88;50.72;96023.47;5121047;28;20079;-53
2023/05/12 09:07:43;;;;;;;7.35;4.30;;;;;;;25.92;48.16;96019.22;5109879;28;20088;-57
2023/05/12 09:10:16;;;;;;;8.25;4.03;;;;;;;26.36;47.18;96024.53;5113408;28;20091;-57
2023/05/12 09:13:03;;;;;;;6.38;3.95;;;;;;;25.61;47.09;96026.91;5109151;27;20079;-55
2023/05/12 09:15:36;;;;;;;5.25;3.67;;;;;;;25.74;46.95;96031.09;5129551;27;20083;-57
2023/05/12 09:18:04;;;;;;;6.75;4.47;;;;;;;26.95;44.63;96019.97;5115583;27;20083;-52
2023/05/12 09:20:34;;;;;;;7.05;3.70;;;;;;;26.10;46.68;96029.69;5115576;27;20521;-56
2023/05/12 09:23:14;;;;;;;6.55;4.30;;;;;;;25.64;47.40;96023.72;5117537;27;20094;-56
2023/05/12 09:25:43;;;;;;;;;;;;;;;26.99;46.61;96020.28;5124030;27;20043;-58
2023/05/12 09:28:11;;;;;;;7.45;5.03;;;;;;;28.01;43.00;96020.88;5121140;27;19954;-54
2023/05/12 09:30:41;;;;;;;7.30;4.47;;;;;;;26.67;44.03;96026.50;5114627;27;20082;-53
2023/05/12 09:33:12;;;;;;;7.47;5.10;;;;;;;25.76;46.61;96029.00;5121071;27;20082;-55
2023/05/12 09:35:44;;;;;;;9.25;5.80;;;;;;;25.94;46.00;96025.97;5098083;27;20336;-52
2023/05/12 09:38:14;;;;;;;5.72;3.58;;;;;;;27.27;43.10;96015.63;5127950;27;20086;-51
2023/05/12 09:40:42;;;;;;;6.60;4.15;;;;;;;26.92;43.85;96017.78;5120134;27;20082;-58
2023/05/12 09:43:11;;;;;;;4.65;3.00;;;;;;;26.64;43.26;96018.09;5111947;27;20489;-52
2023/05/12 09:45:45;;;;;;;4.78;3.17;;;;;;;26.26;43.58;96019.88;5110383;27;20071;-54
2023/05/12 09:48:13;;;;;;;6.85;4.22;;;;;;;26.58;43.99;96022.63;5118157;27;20091;-52
2023/05/12 09:50:44;;;;;;;6.28;4.00;;;;;;;26.43;45.24;96017.88;5123399;27;20569;-51
2023/05/12 09:53:16;;;;;;;6.72;4.13;;;;;;;25.26;46.00;96030.75;5117839;27;20649;-55
2023/05/12 09:55:45;;;;;;;5.15;3.30;;;;;;;26.91;43.20;96018.03;5122319;27;20106;-54
2023/05/12 09:58:15;;;;;;;7.22;4.45;;;;;;;25.89;44.45;96033.22;5114963;27;20075;-52
2023/05/12 10:00:44;;;;;;;7.60;4.13;;;;;;;26.09;45.10;96029.97;5118995;27;20078;-55
2023/05/12 10:03:33;;;;;;;6.93;4.13;;;;;;;27.93;42.05;96018.66;5119116;27;20523;-55
2023/05/12 10:06:03;;;;;;;7.13;4.20;;;;;;;26.18;44.14;96026.53;5116170;27;20083;-55
2023/05/12 10:08:37;;;;;;;10.27;4.50;;;;;;;25.80;45.42;96033.66;5117295;27;20086;-54
2023/05/12 10:11:06;;;;;;;13.35;4.78;;;;;;;25.07;47.11;96032.06;5119011;27;20087;-53
2023/05/12 10:13:34;;;;;;;10.43;5.88;;;;;;;25.30;nan;96029.19;5108235;27;20074;-56
2023/05/12 10:16:03;;;;;;;8.88;4.90;;;;;;;23.96;54.33;96032.53;5113634;27;20054;-57
2023/05/12 10:18:33;;;;;;;11.57;5.85;;;;;;;25.77;50.22;96030.59;5110145;27;20083;-57
2023/05/12 10:21:03;;;;;;;9.60;5.47;;;;;;;25.30;49.02;96029.19;5119606;27;20087;-55
2023/05/12 10:23:32;;;;;;;9.27;5.60;;;;;;;25.71;47.43;96024.34;5114817;27;20126;-52
2023/05/12 10:26:04;;;;;;;9.73;5.25;;;;;;;24.14;53.17;96035.03;5115238;27;20083;-55
2023/05/12 10:28:32;;;;;;;11.75;6.00;;;;;;;25.79;48.75;96029.34;5120067;27;20110;-50
2023/05/12 10:31:03;;;;;;;7.85;4.88;;;;;;;27.04;45.42;96028.41;5114261;27;20090;-56
2023/05/12 10:33:31;;;;;;;8.70;4.97;;;;;;;27.96;42.44;96015.44;5119156;27;20083;-56
2023/05/12 10:35:59;;;;;;;6.68;3.88;;;;;;;26.99;42.68;96031.09;5115195;27;20523;-58
2023/05/12 10:38:35;;;;;;;8.10;4.80;;;;;;;27.12;43.16;96025.28;5120997;27;20087;-54
2023/05/12 10:41:06;;;;;;;11.23;5.95;;;;;;;26.45;45.54;96034.66;5110947;27;20094;-57
2023/05/12 10:43:44;;;;;;;;;;;;;;;26.04;45.89;96039.63;5111133;27;20083;-58
2023/05/12 10:46:17;;;;;;;9.05;4.68;;;;;;;27.62;43.18;96032.06;5126249;27;19954;-54
2023/05/12 10:48:53;;;;;;;9.52;4.68;;;;;;;27.44;42.99;96027.91;5116228;27;20470;-55
2023/05/12 10:51:23;;;;;;;6.28;3.67;;;;;;;27.05;45.28;96031.94;5119797;27;20087;-57
2023/05/12 10:53:54;;;;;;;5.85;3.65;;;;;;;27.56;43.95;96022.25;5113506;27;20094;-58
2023/05/12 10:56:24;;;;;;;6.47;3.67;;;;;;;26.80;45.28;96037.97;5115720;27;20083;-53
2023/05/12 10:59:07;;;;;;;4.45;2.50;;;;;;;28.40;40.74;96025.88;5114461;27;20083;-54
2023/05/12 11:01:36;;;;;;;4.18;2.58;;;;;;;27.37;42.47;96032.75;5123069;27;20546;-58
2023/05/12 11:04:13;;;;;;;4.28;2.70;;;;;;;29.19;41.10;96023.78;5122915;27;20039;-56
2023/05/12 11:06:42;;;;;;;6.10;3.40;;;;;;;27.84;40.88;96028.38;5114323;27;20078;-50
2023/05/12 11:09:14;;;;;;;3.63;2.35;;;;;;;26.40;43.06;96040.03;5117150;27;20075;-57
2023/05/12 11:11:45;;;;;;;5.03;2.80;;;;;;;27.10;42.31;96043.63;5114735;27;20086;-57
2023/05/12 11:14:15;;;;;;;4.95;2.70;;;;;;;26.82;42.57;96041.25;5116859;27;20083;-50
2023/05/12 11:16:44;;;;;;;4.88;2.75;;;;;;;28.90;40.12;96035.16;5117877;27;20573;-58
2023/05/12 11:19:12;;;;;;;4.25;3.00;;;;;;;29.23;39.57;96033.00;5112678;27;20078;-51
2023/05/12 11:21:41;;;;;;;4.00;2.53;;;;;;;28.83;40.63;96040.03;5109990;27;20087;-58
2023/05/12 11:24:10;;;;;;;5.20;4.10;;;;;;;26.58;44.73;96052.38;5107518;27;20106;-53
2023/05/12 11:26:43;;;;;;;37.42;23.60;;;;;;;24.52;55.95;96057.03;5118874;27;20077;-55
2023/05/12 11:29:11;;;;;;;23.45;16.85;;;;;;;24.92;57.50;96059.63;5117806;27;20083;-52
2023/05/12 11:31:40;;;;;;;97.57;65.40;;;;;;;23.57;63.53;96061.03;5116776;27;20091;-59
2023/05/12 11:34:08;;;;;;;99.60;69.30;;;;;;;24.04;65.53;96064.47;5092313;27;20067;-55
2023/05/12 11:36:42;;;;;;;126.35;86.38;;;;;;;24.20;63.43;96057.50;5110915;27;20169;-55
2023/05/12 11:39:13;;;;;;;160.43;109.10;;;;;;;23.77;68.39;96056.09;5112962;27;20079;-56